sensor_id;sensor_type;location;lat;lon;timestamp;temperature;humidity
16827;DHT22;8530;49.540;8.576;2023-06-22T00:00:10;24.00;69.80
16827;DHT22;8530;49.540;8.576;2023-06-22T00:02:37;24.00;70.00
16827;DHT22;8530;49.540;8.576;2023-06-22T00:05:06;24.00;70.10
16827;DHT22;8530;49.540;8.576;2023-06-22T00:07:32;24.00;70.30
16827;DHT22;8530;49.540;8.576;2023-06-22T00:09:59;23.90;70.30
16827;DHT22;8530;49.540;8.576;2023-06-22T00:12:26;23.90;70.60
16827;DHT22;8530;49.540;8.576;2023-06-22T00:14:53;23.90;70.80
16827;DHT22;8530;49.540;8.576;2023-06-22T00:17:19;23.90;71.10
16827;DHT22;8530;49.540;8.576;2023-06-22T00:19:47;23.90;71.40
16827;DHT22;8530;49.540;8.576;2023-06-22T00:22:19;23.90;71.70
16827;DHT22;8530;49.540;8.576;2023-06-22T00:24:54;23.90;72.00
16827;DHT22;8530;49.540;8.576;2023-06-22T00:27:21;24.00;72.20
16827;DHT22;8530;49.540;8.576;2023-06-22T00:29:48;24.00;72.40
16827;DHT22;8530;49.540;8.576;2023-06-22T00:32:14;24.00;72.70
16827;DHT22;8530;49.540;8.576;2023-06-22T00:34:42;24.00;73.00
16827;DHT22;8530;49.540;8.576;2023-06-22T00:37:09;24.00;73.30
16827;DHT22;8530;49.540;8.576;2023-06-22T00:39:38;24.00;73.60
16827;DHT22;8530;49.540;8.576;2023-06-22T00:42:05;24.00;73.90
16827;DHT22;8530;49.540;8.576;2023-06-22T00:44:31;24.00;74.20
16827;DHT22;8530;49.540;8.576;2023-06-22T00:46:58;24.00;74.50
16827;DHT22;8530;49.540;8.576;2023-06-22T00:49:25;24.00;74.90
16827;DHT22;8530;49.540;8.576;2023-06-22T00:51:52;23.90;75.20
16827;DHT22;8530;49.540;8.576;2023-06-22T00:54:19;23.90;75.60
16827;DHT22;8530;49.540;8.576;2023-06-22T00:56:53;23.90;76.00
16827;DHT22;8530;49.540;8.576;2023-06-22T00:59:21;23.90;76.50
16827;DHT22;8530;49.540;8.576;2023-06-22T01:01:48;23.90;77.00
16827;DHT22;8530;49.540;8.576;2023-06-22T01:04:15;23.90;77.80
16827;DHT22;8530;49.540;8.576;2023-06-22T01:06:49;23.40;78.50
16827;DHT22;8530;49.540;8.576;2023-06-22T01:09:21;22.70;82.20
16827;DHT22;8530;49.540;8.576;2023-06-22T01:11:53;22.20;85.30
16827;DHT22;8530;49.540;8.576;2023-06-22T01:14:24;21.80;89.60
16827;DHT22;8530;49.540;8.576;2023-06-22T01:16:54;21.50;91.80
16827;DHT22;8530;49.540;8.576;2023-06-22T01:19:34;21.30;94.00
16827;DHT22;8530;49.540;8.576;2023-06-22T01:22:03;21.10;95.40
16827;DHT22;8530;49.540;8.576;2023-06-22T01:24:37;21.00;96.30
16827;DHT22;8530;49.540;8.576;2023-06-22T01:27:15;21.00;97.40
16827;DHT22;8530;49.540;8.576;2023-06-22T01:29:49;20.90;98.40
16827;DHT22;8530;49.540;8.576;2023-06-22T01:32:16;20.90;98.90
16827;DHT22;8530;49.540;8.576;2023-06-22T01:34:44;21.00;99.50
16827;DHT22;8530;49.540;8.576;2023-06-22T01:37:12;20.90;99.90
16827;DHT22;8530;49.540;8.576;2023-06-22T01:39:40;21.00;99.90
16827;DHT22;8530;49.540;8.576;2023-06-22T01:42:07;21.00;99.90
16827;DHT22;8530;49.540;8.576;2023-06-22T01:44:34;21.10;99.90
16827;DHT22;8530;49.540;8.576;2023-06-22T01:47:02;21.10;99.90
16827;DHT22;8530;49.540;8.576;2023-06-22T01:49:30;21.20;99.90
16827;DHT22;8530;49.540;8.576;2023-06-22T01:51:57;21.20;99.90
16827;DHT22;8530;49.540;8.576;2023-06-22T01:54:24;21.20;99.90
16827;DHT22;8530;49.540;8.576;2023-06-22T01:56:50;21.20;99.90
16827;DHT22;8530;49.540;8.576;2023-06-22T01:59:22;21.20;99.90
16827;DHT22;8530;49.540;8.576;2023-06-22T02:01:59;21.20;99.90
16827;DHT22;8530;49.540;8.576;2023-06-22T02:04:34;21.20;99.90
16827;DHT22;8530;49.540;8.576;2023-06-22T02:07:02;21.20;99.90
16827;DHT22;8530;49.540;8.576;2023-06-22T02:09:31;21.20;99.90
16827;DHT22;8530;49.540;8.576;2023-06-22T02:12:00;21.20;99.90
16827;DHT22;8530;49.540;8.576;2023-06-22T02:14:29;21.30;99.90
16827;DHT22;8530;49.540;8.576;2023-06-22T02:16:56;21.20;99.90
16827;DHT22;8530;49.540;8.576;2023-06-22T02:19:25;21.30;99.90
16827;DHT22;8530;49.540;8.576;2023-06-22T02:21:54;21.30;99.90
16827;DHT22;8530;49.540;8.576;2023-06-22T02:24:21;21.40;99.90
16827;DHT22;8530;49.540;8.576;2023-06-22T02:26:49;21.40;99.90
16827;DHT22;8530;49.540;8.576;2023-06-22T02:29:16;21.50;99.90
16827;DHT22;8530;49.540;8.576;2023-06-22T02:31:43;21.50;99.90
16827;DHT22;8530;49.540;8.576;2023-06-22T02:34:10;21.50;99.90
16827;DHT22;8530;49.540;8.576;2023-06-22T02:36:43;21.50;99.90
16827;DHT22;8530;49.540;8.576;2023-06-22T02:39:18;21.50;99.90
16827;DHT22;8530;49.540;8.576;2023-06-22T02:41:48;21.50;99.90
16827;DHT22;8530;49.540;8.576;2023-06-22T02:44:16;21.50;99.90
16827;DHT22;8530;49.540;8.576;2023-06-22T02:46:43;21.50;99.90
16827;DHT22;8530;49.540;8.576;2023-06-22T02:49:10;21.50;99.90
16827;DHT22;8530;49.540;8.576;2023-06-22T02:51:39;21.50;99.90
16827;DHT22;8530;49.540;8.576;2023-06-22T02:54:05;21.50;99.90
16827;DHT22;8530;49.540;8.576;2023-06-22T02:56:34;21.50;99.90
16827;DHT22;8530;49.540;8.576;2023-06-22T02:59:02;21.50;99.90
16827;DHT22;8530;49.540;8.576;2023-06-22T03:01:29;21.40;99.90
16827;DHT22;8530;49.540;8.576;2023-06-22T03:04:03;21.40;99.90
16827;DHT22;8530;49.540;8.576;2023-06-22T03:06:29;21.30;99.90
16827;DHT22;8530;49.540;8.576;2023-06-22T03:09:00;21.30;99.90
16827;DHT22;8530;49.540;8.576;2023-06-22T03:11:29;21.20;99.90
16827;DHT22;8530;49.540;8.576;2023-06-22T03:13:57;21.20;99.90
16827;DHT22;8530;49.540;8.576;2023-06-22T03:16:24;21.20;99.90
16827;DHT22;8530;49.540;8.576;2023-06-22T03:18:51;21.20;99.90
16827;DHT22;8530;49.540;8.576;2023-06-22T03:21:19;21.20;99.90
16827;DHT22;8530;49.540;8.576;2023-06-22T03:23:45;21.20;99.90
16827;DHT22;8530;49.540;8.576;2023-06-22T03:26:12;21.10;99.90
16827;DHT22;8530;49.540;8.576;2023-06-22T03:28:40;21.10;99.90
16827;DHT22;8530;49.540;8.576;2023-06-22T03:31:08;21.10;99.90
16827;DHT22;8530;49.540;8.576;2023-06-22T03:33:35;21.10;99.90
16827;DHT22;8530;49.540;8.576;2023-06-22T03:36:02;21.10;99.90
16827;DHT22;8530;49.540;8.576;2023-06-22T03:38:29;21.10;99.90
16827;DHT22;8530;49.540;8.576;2023-06-22T03:40:56;21.20;99.90
16827;DHT22;8530;49.540;8.576;2023-06-22T03:43:23;21.20;99.90
16827;DHT22;8530;49.540;8.576;2023-06-22T03:45:50;21.20;99.90
16827;DHT22;8530;49.540;8.576;2023-06-22T03:48:18;21.30;99.90
16827;DHT22;8530;49.540;8.576;2023-06-22T03:50:44;21.40;99.90
16827;DHT22;8530;49.540;8.576;2023-06-22T03:53:11;21.50;99.90
16827;DHT22;8530;49.540;8.576;2023-06-22T03:55:48;21.60;99.90
16827;DHT22;8530;49.540;8.576;2023-06-22T03:58:15;21.70;99.90
16827;DHT22;8530;49.540;8.576;2023-06-22T04:00:42;21.80;99.90
16827;DHT22;8530;49.540;8.576;2023-06-22T04:03:08;22.00;99.90
16827;DHT22;8530;49.540;8.576;2023-06-22T04:05:38;22.10;99.90
16827;DHT22;8530;49.540;8.576;2023-06-22T04:08:05;22.20;99.90
16827;DHT22;8530;49.540;8.576;2023-06-22T04:10:32;22.20;99.90
16827;DHT22;8530;49.540;8.576;2023-06-22T04:13:00;22.40;99.90
16827;DHT22;8530;49.540;8.576;2023-06-22T04:15:27;22.50;99.90
16827;DHT22;8530;49.540;8.576;2023-06-22T04:17:54;22.70;99.90
16827;DHT22;8530;49.540;8.576;2023-06-22T04:20:21;22.90;99.90
16827;DHT22;8530;49.540;8.576;2023-06-22T04:22:52;23.10;99.90
16827;DHT22;8530;49.540;8.576;2023-06-22T04:25:19;23.30;99.90
16827;DHT22;8530;49.540;8.576;2023-06-22T04:27:46;23.50;99.90
16827;DHT22;8530;49.540;8.576;2023-06-22T04:30:13;23.60;99.90
16827;DHT22;8530;49.540;8.576;2023-06-22T04:32:42;23.70;99.90
16827;DHT22;8530;49.540;8.576;2023-06-22T04:35:09;23.70;99.90
16827;DHT22;8530;49.540;8.576;2023-06-22T04:37:35;23.80;99.90
16827;DHT22;8530;49.540;8.576;2023-06-22T04:40:10;23.80;99.90
16827;DHT22;8530;49.540;8.576;2023-06-22T04:42:40;23.90;99.90
16827;DHT22;8530;49.540;8.576;2023-06-22T04:45:21;24.00;99.90
16827;DHT22;8530;49.540;8.576;2023-06-22T04:47:48;24.10;99.90
16827;DHT22;8530;49.540;8.576;2023-06-22T04:50:27;24.20;99.90
16827;DHT22;8530;49.540;8.576;2023-06-22T04:53:01;24.20;99.90
16827;DHT22;8530;49.540;8.576;2023-06-22T04:55:32;24.40;99.90
16827;DHT22;8530;49.540;8.576;2023-06-22T04:58:00;24.60;99.90
16827;DHT22;8530;49.540;8.576;2023-06-22T05:00:30;24.80;99.90
16827;DHT22;8530;49.540;8.576;2023-06-22T05:02:57;24.90;99.90
16827;DHT22;8530;49.540;8.576;2023-06-22T05:05:34;25.00;99.90
16827;DHT22;8530;49.540;8.576;2023-06-22T05:08:08;25.10;99.90
16827;DHT22;8530;49.540;8.576;2023-06-22T05:10:46;25.20;99.90
16827;DHT22;8530;49.540;8.576;2023-06-22T05:13:35;25.40;99.90
16827;DHT22;8530;49.540;8.576;2023-06-22T05:16:11;25.60;99.60
16827;DHT22;8530;49.540;8.576;2023-06-22T05:18:53;25.70;99.30
16827;DHT22;8530;49.540;8.576;2023-06-22T05:21:24;26.00;98.90
16827;DHT22;8530;49.540;8.576;2023-06-22T05:23:53;26.20;98.10
16827;DHT22;8530;49.540;8.576;2023-06-22T05:26:24;26.40;97.60
16827;DHT22;8530;49.540;8.576;2023-06-22T05:28:56;26.70;97.10
16827;DHT22;8530;49.540;8.576;2023-06-22T05:31:26;26.90;96.70
16827;DHT22;8530;49.540;8.576;2023-06-22T05:33:55;27.10;96.10
16827;DHT22;8530;49.540;8.576;2023-06-22T05:36:28;27.20;95.80
16827;DHT22;8530;49.540;8.576;2023-06-22T05:39:23;27.70;95.50
16827;DHT22;8530;49.540;8.576;2023-06-22T05:42:05;28.60;94.90
16827;DHT22;8530;49.540;8.576;2023-06-22T05:44:37;30.50;92.60
16827;DHT22;8530;49.540;8.576;2023-06-22T05:47:08;32.40;90.50
16827;DHT22;8530;49.540;8.576;2023-06-22T05:49:41;34.00;83.20
16827;DHT22;8530;49.540;8.576;2023-06-22T05:52:43;35.30;75.10
16827;DHT22;8530;49.540;8.576;2023-06-22T05:55:28;36.80;66.40
16827;DHT22;8530;49.540;8.576;2023-06-22T05:57:59;38.00;58.60
16827;DHT22;8530;49.540;8.576;2023-06-22T06:00:54;38.80;52.80
16827;DHT22;8530;49.540;8.576;2023-06-22T06:03:44;39.70;47.30
16827;DHT22;8530;49.540;8.576;2023-06-22T06:06:30;40.60;44.40
16827;DHT22;8530;49.540;8.576;2023-06-22T06:08:57;41.40;41.10
16827;DHT22;8530;49.540;8.576;2023-06-22T06:11:30;42.20;38.40
16827;DHT22;8530;49.540;8.576;2023-06-22T06:14:00;42.90;35.80
16827;DHT22;8530;49.540;8.576;2023-06-22T06:16:33;43.30;33.70
16827;DHT22;8530;49.540;8.576;2023-06-22T06:19:14;43.80;31.70
16827;DHT22;8530;49.540;8.576;2023-06-22T06:21:40;44.30;30.20
16827;DHT22;8530;49.540;8.576;2023-06-22T06:24:07;44.70;28.80
16827;DHT22;8530;49.540;8.576;2023-06-22T06:26:34;45.20;27.80
16827;DHT22;8530;49.540;8.576;2023-06-22T06:29:02;46.10;26.80
16827;DHT22;8530;49.540;8.576;2023-06-22T06:31:29;46.80;26.00
16827;DHT22;8530;49.540;8.576;2023-06-22T06:33:56;47.20;25.40
16827;DHT22;8530;49.540;8.576;2023-06-22T06:36:23;47.20;24.90
16827;DHT22;8530;49.540;8.576;2023-06-22T06:38:49;47.30;24.50
16827;DHT22;8530;49.540;8.576;2023-06-22T06:41:16;47.50;23.60
16827;DHT22;8530;49.540;8.576;2023-06-22T06:43:43;48.00;23.30
16827;DHT22;8530;49.540;8.576;2023-06-22T06:46:11;48.20;22.20
16827;DHT22;8530;49.540;8.576;2023-06-22T06:48:41;48.40;21.80
16827;DHT22;8530;49.540;8.576;2023-06-22T06:51:08;48.50;21.60
16827;DHT22;8530;49.540;8.576;2023-06-22T06:53:35;48.50;20.90
16827;DHT22;8530;49.540;8.576;2023-06-22T06:56:02;48.40;21.00
16827;DHT22;8530;49.540;8.576;2023-06-22T06:58:28;48.50;20.70
16827;DHT22;8530;49.540;8.576;2023-06-22T07:00:55;48.90;20.50
16827;DHT22;8530;49.540;8.576;2023-06-22T07:03:23;49.60;20.00
16827;DHT22;8530;49.540;8.576;2023-06-22T07:05:50;49.80;20.00
16827;DHT22;8530;49.540;8.576;2023-06-22T07:08:17;50.40;19.50
16827;DHT22;8530;49.540;8.576;2023-06-22T07:10:43;50.70;18.90
16827;DHT22;8530;49.540;8.576;2023-06-22T07:13:10;50.60;18.50
16827;DHT22;8530;49.540;8.576;2023-06-22T07:15:37;50.50;18.30
16827;DHT22;8530;49.540;8.576;2023-06-22T07:18:05;50.30;18.20
16827;DHT22;8530;49.540;8.576;2023-06-22T07:20:33;50.00;18.10
16827;DHT22;8530;49.540;8.576;2023-06-22T07:23:01;49.70;18.00
16827;DHT22;8530;49.540;8.576;2023-06-22T07:25:28;49.20;18.50
16827;DHT22;8530;49.540;8.576;2023-06-22T07:28:00;49.10;18.70
16827;DHT22;8530;49.540;8.576;2023-06-22T07:30:27;49.50;18.40
16827;DHT22;8530;49.540;8.576;2023-06-22T07:32:55;49.80;18.10
16827;DHT22;8530;49.540;8.576;2023-06-22T07:35:21;50.10;18.00
16827;DHT22;8530;49.540;8.576;2023-06-22T07:37:50;50.20;17.90
16827;DHT22;8530;49.540;8.576;2023-06-22T07:40:17;50.10;17.80
16827;DHT22;8530;49.540;8.576;2023-06-22T07:42:44;49.60;17.60
16827;DHT22;8530;49.540;8.576;2023-06-22T07:45:13;48.80;18.10
16827;DHT22;8530;49.540;8.576;2023-06-22T07:47:40;48.50;18.10
16827;DHT22;8530;49.540;8.576;2023-06-22T07:50:08;48.20;18.00
16827;DHT22;8530;49.540;8.576;2023-06-22T07:52:35;48.10;18.10
16827;DHT22;8530;49.540;8.576;2023-06-22T07:55:04;48.00;18.30
16827;DHT22;8530;49.540;8.576;2023-06-22T07:57:31;48.20;18.30
16827;DHT22;8530;49.540;8.576;2023-06-22T08:00:03;47.80;18.20
16827;DHT22;8530;49.540;8.576;2023-06-22T08:02:36;47.20;18.40
16827;DHT22;8530;49.540;8.576;2023-06-22T08:05:04;46.90;18.60
16827;DHT22;8530;49.540;8.576;2023-06-22T08:07:32;46.80;18.70
16827;DHT22;8530;49.540;8.576;2023-06-22T08:09:59;46.80;18.50
16827;DHT22;8530;49.540;8.576;2023-06-22T08:12:27;46.80;18.40
16827;DHT22;8530;49.540;8.576;2023-06-22T08:14:54;46.50;18.60
16827;DHT22;8530;49.540;8.576;2023-06-22T08:17:22;46.20;18.70
16827;DHT22;8530;49.540;8.576;2023-06-22T08:19:49;45.60;18.80
16827;DHT22;8530;49.540;8.576;2023-06-22T08:22:16;44.60;19.10
16827;DHT22;8530;49.540;8.576;2023-06-22T08:24:43;43.70;20.10
16827;DHT22;8530;49.540;8.576;2023-06-22T08:27:10;42.90;20.00
16827;DHT22;8530;49.540;8.576;2023-06-22T08:29:38;42.30;20.50
16827;DHT22;8530;49.540;8.576;2023-06-22T08:32:08;41.80;21.10
16827;DHT22;8530;49.540;8.576;2023-06-22T08:34:35;40.70;21.70
16827;DHT22;8530;49.540;8.576;2023-06-22T08:37:02;39.70;22.60
16827;DHT22;8530;49.540;8.576;2023-06-22T08:39:31;39.00;23.30
16827;DHT22;8530;49.540;8.576;2023-06-22T08:41:59;38.40;24.00
16827;DHT22;8530;49.540;8.576;2023-06-22T08:44:26;37.90;24.60
16827;DHT22;8530;49.540;8.576;2023-06-22T08:46:54;37.50;25.00
16827;DHT22;8530;49.540;8.576;2023-06-22T08:49:21;37.30;25.40
16827;DHT22;8530;49.540;8.576;2023-06-22T08:51:48;37.00;25.60
16827;DHT22;8530;49.540;8.576;2023-06-22T08:54:14;36.70;26.00
16827;DHT22;8530;49.540;8.576;2023-06-22T08:56:41;36.30;26.50
16827;DHT22;8530;49.540;8.576;2023-06-22T08:59:09;36.20;26.90
16827;DHT22;8530;49.540;8.576;2023-06-22T09:01:36;35.90;27.00
16827;DHT22;8530;49.540;8.576;2023-06-22T09:04:04;35.80;27.40
16827;DHT22;8530;49.540;8.576;2023-06-22T09:06:33;35.60;27.70
16827;DHT22;8530;49.540;8.576;2023-06-22T09:08:59;35.50;28.00
16827;DHT22;8530;49.540;8.576;2023-06-22T09:11:26;35.60;28.30
16827;DHT22;8530;49.540;8.576;2023-06-22T09:13:53;35.70;28.40
16827;DHT22;8530;49.540;8.576;2023-06-22T09:16:19;35.70;28.40
16827;DHT22;8530;49.540;8.576;2023-06-22T09:18:47;35.60;28.50
16827;DHT22;8530;49.540;8.576;2023-06-22T09:21:15;35.60;28.80
16827;DHT22;8530;49.540;8.576;2023-06-22T09:23:42;35.90;29.00
16827;DHT22;8530;49.540;8.576;2023-06-22T09:26:11;36.30;29.00
16827;DHT22;8530;49.540;8.576;2023-06-22T09:28:37;36.60;28.70
16827;DHT22;8530;49.540;8.576;2023-06-22T09:31:04;36.80;28.60
16827;DHT22;8530;49.540;8.576;2023-06-22T09:33:31;37.20;28.40
16827;DHT22;8530;49.540;8.576;2023-06-22T09:35:57;37.20;28.20
16827;DHT22;8530;49.540;8.576;2023-06-22T09:38:25;37.20;28.20
16827;DHT22;8530;49.540;8.576;2023-06-22T09:40:52;37.10;28.20
16827;DHT22;8530;49.540;8.576;2023-06-22T09:43:19;36.90;28.30
16827;DHT22;8530;49.540;8.576;2023-06-22T09:45:46;36.70;28.40
16827;DHT22;8530;49.540;8.576;2023-06-22T09:48:13;36.70;28.60
16827;DHT22;8530;49.540;8.576;2023-06-22T09:50:40;36.80;28.50
16827;DHT22;8530;49.540;8.576;2023-06-22T09:53:07;36.80;28.40
16827;DHT22;8530;49.540;8.576;2023-06-22T09:55:35;36.80;28.40
16827;DHT22;8530;49.540;8.576;2023-06-22T09:58:02;36.60;28.30
16827;DHT22;8530;49.540;8.576;2023-06-22T10:00:29;36.50;28.40
16827;DHT22;8530;49.540;8.576;2023-06-22T10:02:56;36.40;28.50
16827;DHT22;8530;49.540;8.576;2023-06-22T10:05:23;36.40;28.40
16827;DHT22;8530;49.540;8.576;2023-06-22T10:07:51;36.30;28.40
16827;DHT22;8530;49.540;8.576;2023-06-22T10:10:18;36.30;28.50
16827;DHT22;8530;49.540;8.576;2023-06-22T10:12:48;36.30;28.60
16827;DHT22;8530;49.540;8.576;2023-06-22T10:15:21;36.10;29.20
16827;DHT22;8530;49.540;8.576;2023-06-22T10:17:48;36.10;28.90
16827;DHT22;8530;49.540;8.576;2023-06-22T10:20:15;36.10;28.90
16827;DHT22;8530;49.540;8.576;2023-06-22T10:22:44;36.10;29.00
16827;DHT22;8530;49.540;8.576;2023-06-22T10:25:12;36.20;29.10
16827;DHT22;8530;49.540;8.576;2023-06-22T10:27:39;36.20;29.20
16827;DHT22;8530;49.540;8.576;2023-06-22T10:30:09;36.10;29.30
16827;DHT22;8530;49.540;8.576;2023-06-22T10:32:38;36.10;29.40
16827;DHT22;8530;49.540;8.576;2023-06-22T10:35:06;36.10;29.40
16827;DHT22;8530;49.540;8.576;2023-06-22T10:37:32;36.20;29.50
16827;DHT22;8530;49.540;8.576;2023-06-22T10:39:59;36.40;29.60
16827;DHT22;8530;49.540;8.576;2023-06-22T10:42:26;36.60;29.50
16827;DHT22;8530;49.540;8.576;2023-06-22T10:44:53;36.90;29.40
16827;DHT22;8530;49.540;8.576;2023-06-22T10:47:21;37.10;29.20
16827;DHT22;8530;49.540;8.576;2023-06-22T10:49:47;37.10;29.20
16827;DHT22;8530;49.540;8.576;2023-06-22T10:52:15;37.10;29.00
16827;DHT22;8530;49.540;8.576;2023-06-22T10:54:41;37.20;28.90
16827;DHT22;8530;49.540;8.576;2023-06-22T10:57:08;37.30;28.80
16827;DHT22;8530;49.540;8.576;2023-06-22T10:59:36;37.60;28.70
16827;DHT22;8530;49.540;8.576;2023-06-22T11:02:03;37.70;28.50
16827;DHT22;8530;49.540;8.576;2023-06-22T11:04:31;37.80;28.40
16827;DHT22;8530;49.540;8.576;2023-06-22T11:06:58;37.70;28.30
16827;DHT22;8530;49.540;8.576;2023-06-22T11:09:25;37.70;28.30
16827;DHT22;8530;49.540;8.576;2023-06-22T11:11:52;37.50;28.30
16827;DHT22;8530;49.540;8.576;2023-06-22T11:14:19;37.30;28.40
16827;DHT22;8530;49.540;8.576;2023-06-22T11:16:46;37.10;28.60
16827;DHT22;8530;49.540;8.576;2023-06-22T11:19:13;37.00;28.80
16827;DHT22;8530;49.540;8.576;2023-06-22T11:21:41;36.80;29.10
16827;DHT22;8530;49.540;8.576;2023-06-22T11:24:08;36.80;29.30
16827;DHT22;8530;49.540;8.576;2023-06-22T11:26:35;36.90;29.40
16827;DHT22;8530;49.540;8.576;2023-06-22T11:29:02;37.30;29.30
16827;DHT22;8530;49.540;8.576;2023-06-22T11:31:30;37.60;29.10
16827;DHT22;8530;49.540;8.576;2023-06-22T11:33:57;37.80;29.00
16827;DHT22;8530;49.540;8.576;2023-06-22T11:36:25;37.80;28.90
16827;DHT22;8530;49.540;8.576;2023-06-22T11:38:53;38.00;28.80
16827;DHT22;8530;49.540;8.576;2023-06-22T11:41:21;38.20;28.50
16827;DHT22;8530;49.540;8.576;2023-06-22T11:43:48;38.50;28.30
16827;DHT22;8530;49.540;8.576;2023-06-22T11:46:14;38.60;28.00
16827;DHT22;8530;49.540;8.576;2023-06-22T11:48:41;38.30;27.90
16827;DHT22;8530;49.540;8.576;2023-06-22T11:51:08;38.10;28.00
16827;DHT22;8530;49.540;8.576;2023-06-22T11:53:39;38.00;28.60
16827;DHT22;8530;49.540;8.576;2023-06-22T11:56:07;38.00;28.30
16827;DHT22;8530;49.540;8.576;2023-06-22T11:58:34;38.00;28.30
16827;DHT22;8530;49.540;8.576;2023-06-22T12:01:01;37.90;28.30
16827;DHT22;8530;49.540;8.576;2023-06-22T12:03:28;38.00;28.40
16827;DHT22;8530;49.540;8.576;2023-06-22T12:05:55;38.10;28.70
16827;DHT22;8530;49.540;8.576;2023-06-22T12:08:22;38.00;28.20
16827;DHT22;8530;49.540;8.576;2023-06-22T12:10:50;38.10;28.20
16827;DHT22;8530;49.540;8.576;2023-06-22T12:13:19;38.30;28.20
16827;DHT22;8530;49.540;8.576;2023-06-22T12:15:45;38.40;28.20
16827;DHT22;8530;49.540;8.576;2023-06-22T12:18:12;38.40;28.20
16827;DHT22;8530;49.540;8.576;2023-06-22T12:20:40;38.40;28.10
16827;DHT22;8530;49.540;8.576;2023-06-22T12:23:10;38.40;28.00
16827;DHT22;8530;49.540;8.576;2023-06-22T12:25:37;38.60;27.80
16827;DHT22;8530;49.540;8.576;2023-06-22T12:28:04;38.70;27.80
16827;DHT22;8530;49.540;8.576;2023-06-22T12:30:32;38.80;27.60
16827;DHT22;8530;49.540;8.576;2023-06-22T12:32:59;38.90;27.40
16827;DHT22;8530;49.540;8.576;2023-06-22T12:35:26;38.90;27.40
16827;DHT22;8530;49.540;8.576;2023-06-22T12:37:53;39.00;27.20
16827;DHT22;8530;49.540;8.576;2023-06-22T12:40:19;39.30;27.20
16827;DHT22;8530;49.540;8.576;2023-06-22T12:42:46;39.50;27.10
16827;DHT22;8530;49.540;8.576;2023-06-22T12:45:13;39.60;26.90
16827;DHT22;8530;49.540;8.576;2023-06-22T12:47:41;39.60;26.70
16827;DHT22;8530;49.540;8.576;2023-06-22T12:50:09;39.60;27.00
16827;DHT22;8530;49.540;8.576;2023-06-22T12:52:36;39.60;26.50
16827;DHT22;8530;49.540;8.576;2023-06-22T12:55:05;39.60;26.50
16827;DHT22;8530;49.540;8.576;2023-06-22T12:57:32;39.60;26.50
16827;DHT22;8530;49.540;8.576;2023-06-22T13:00:00;39.70;26.40
16827;DHT22;8530;49.540;8.576;2023-06-22T13:02:27;39.80;26.20
16827;DHT22;8530;49.540;8.576;2023-06-22T13:04:55;39.70;26.10
16827;DHT22;8530;49.540;8.576;2023-06-22T13:07:22;39.70;26.00
16827;DHT22;8530;49.540;8.576;2023-06-22T13:09:49;39.70;26.00
16827;DHT22;8530;49.540;8.576;2023-06-22T13:12:17;39.60;25.90
16827;DHT22;8530;49.540;8.576;2023-06-22T13:14:45;39.50;25.90
16827;DHT22;8530;49.540;8.576;2023-06-22T13:17:12;39.40;26.00
16827;DHT22;8530;49.540;8.576;2023-06-22T13:19:39;39.40;26.00
16827;DHT22;8530;49.540;8.576;2023-06-22T13:22:29;39.50;26.00
16827;DHT22;8530;49.540;8.576;2023-06-22T13:24:56;39.70;26.50
16827;DHT22;8530;49.540;8.576;2023-06-22T13:27:23;39.80;26.00
16827;DHT22;8530;49.540;8.576;2023-06-22T13:29:50;39.80;26.00
16827;DHT22;8530;49.540;8.576;2023-06-22T13:32:17;39.60;25.90
16827;DHT22;8530;49.540;8.576;2023-06-22T13:34:44;39.30;26.00
16827;DHT22;8530;49.540;8.576;2023-06-22T13:37:13;39.10;26.40
16827;DHT22;8530;49.540;8.576;2023-06-22T13:39:40;39.00;26.60
16827;DHT22;8530;49.540;8.576;2023-06-22T13:42:07;38.90;26.80
16827;DHT22;8530;49.540;8.576;2023-06-22T13:44:34;38.90;27.00
16827;DHT22;8530;49.540;8.576;2023-06-22T13:47:01;38.90;27.10
16827;DHT22;8530;49.540;8.576;2023-06-22T13:49:28;38.80;27.10
16827;DHT22;8530;49.540;8.576;2023-06-22T13:51:55;38.80;27.20
16827;DHT22;8530;49.540;8.576;2023-06-22T13:54:23;38.60;27.40
16827;DHT22;8530;49.540;8.576;2023-06-22T13:56:50;38.40;27.60
16827;DHT22;8530;49.540;8.576;2023-06-22T13:59:18;38.40;27.80
16827;DHT22;8530;49.540;8.576;2023-06-22T14:01:45;38.30;27.90
16827;DHT22;8530;49.540;8.576;2023-06-22T14:04:12;38.30;28.00
16827;DHT22;8530;49.540;8.576;2023-06-22T14:06:38;38.10;28.00
16827;DHT22;8530;49.540;8.576;2023-06-22T14:09:05;37.90;28.20
16827;DHT22;8530;49.540;8.576;2023-06-22T14:11:34;37.60;28.40
16827;DHT22;8530;49.540;8.576;2023-06-22T14:14:01;37.20;28.60
16827;DHT22;8530;49.540;8.576;2023-06-22T14:16:28;36.80;28.90
16827;DHT22;8530;49.540;8.576;2023-06-22T14:18:55;36.40;29.20
16827;DHT22;8530;49.540;8.576;2023-06-22T14:21:21;36.00;29.60
16827;DHT22;8530;49.540;8.576;2023-06-22T14:23:48;35.60;29.90
16827;DHT22;8530;49.540;8.576;2023-06-22T14:26:15;35.30;30.20
16827;DHT22;8530;49.540;8.576;2023-06-22T14:28:45;35.00;30.70
16827;DHT22;8530;49.540;8.576;2023-06-22T14:31:14;34.70;31.10
16827;DHT22;8530;49.540;8.576;2023-06-22T14:33:45;34.40;31.50
16827;DHT22;8530;49.540;8.576;2023-06-22T14:36:12;34.20;32.00
16827;DHT22;8530;49.540;8.576;2023-06-22T14:38:39;34.00;33.00
16827;DHT22;8530;49.540;8.576;2023-06-22T14:41:06;33.80;32.70
16827;DHT22;8530;49.540;8.576;2023-06-22T14:43:32;33.80;33.20
16827;DHT22;8530;49.540;8.576;2023-06-22T14:46:01;33.70;33.50
16827;DHT22;8530;49.540;8.576;2023-06-22T14:48:29;33.80;33.90
16827;DHT22;8530;49.540;8.576;2023-06-22T14:50:56;33.90;34.00
16827;DHT22;8530;49.540;8.576;2023-06-22T14:53:23;34.00;34.00
16827;DHT22;8530;49.540;8.576;2023-06-22T14:55:51;34.10;34.00
16827;DHT22;8530;49.540;8.576;2023-06-22T14:58:19;34.20;34.00
16827;DHT22;8530;49.540;8.576;2023-06-22T15:00:46;34.20;34.00
16827;DHT22;8530;49.540;8.576;2023-06-22T15:03:14;34.20;34.20
16827;DHT22;8530;49.540;8.576;2023-06-22T15:05:47;34.10;34.30
16827;DHT22;8530;49.540;8.576;2023-06-22T15:08:14;34.00;34.40
16827;DHT22;8530;49.540;8.576;2023-06-22T15:10:41;33.90;34.60
16827;DHT22;8530;49.540;8.576;2023-06-22T15:13:08;33.90;34.90
16827;DHT22;8530;49.540;8.576;2023-06-22T15:15:35;33.70;35.00
16827;DHT22;8530;49.540;8.576;2023-06-22T15:18:02;33.70;35.20
16827;DHT22;8530;49.540;8.576;2023-06-22T15:20:31;33.60;35.40
16827;DHT22;8530;49.540;8.576;2023-06-22T15:22:59;33.70;35.60
16827;DHT22;8530;49.540;8.576;2023-06-22T15:25:25;33.90;35.80
16827;DHT22;8530;49.540;8.576;2023-06-22T15:27:52;34.10;35.80
16827;DHT22;8530;49.540;8.576;2023-06-22T15:30:22;34.40;35.70
16827;DHT22;8530;49.540;8.576;2023-06-22T15:33:02;34.60;35.60
16827;DHT22;8530;49.540;8.576;2023-06-22T15:35:30;34.90;35.40
16827;DHT22;8530;49.540;8.576;2023-06-22T15:37:57;35.10;35.30
16827;DHT22;8530;49.540;8.576;2023-06-22T15:40:25;35.10;35.10
16827;DHT22;8530;49.540;8.576;2023-06-22T15:42:52;35.00;35.00
16827;DHT22;8530;49.540;8.576;2023-06-22T15:45:20;34.90;35.00
16827;DHT22;8530;49.540;8.576;2023-06-22T15:47:47;34.70;35.00
16827;DHT22;8530;49.540;8.576;2023-06-22T15:50:14;34.50;35.50
16827;DHT22;8530;49.540;8.576;2023-06-22T15:52:43;34.30;35.00